createdAt,value
2019-02-10T00:02:19.223Z,2.26
2019-02-10T00:04:49.044Z,2.25
2019-02-10T00:07:18.565Z,2.25
2019-02-10T00:09:48.246Z,2.10
2019-02-10T00:12:17.828Z,2.02
2019-02-10T00:14:47.629Z,2.14
2019-02-10T00:17:17.552Z,2.30
2019-02-10T00:19:47.128Z,2.40
2019-02-10T00:22:16.800Z,2.21
2019-02-10T00:24:46.510Z,2.07
2019-02-10T00:27:16.127Z,1.97
2019-02-10T00:29:45.730Z,1.86
2019-02-10T00:32:15.263Z,1.86
2019-02-10T00:34:44.962Z,1.90
2019-02-10T00:37:14.727Z,1.88
2019-02-10T00:39:44.309Z,1.84
2019-02-10T00:42:14.119Z,1.79
2019-02-10T00:44:43.704Z,1.79
2019-02-10T00:47:13.198Z,1.79
2019-02-10T00:49:42.823Z,1.71
2019-02-10T00:52:12.633Z,1.71
2019-02-10T00:54:42.467Z,1.71
2019-02-10T00:57:12.195Z,1.71
2019-02-10T00:59:41.849Z,1.70
2019-02-10T01:02:11.442Z,1.68
2019-02-10T01:04:41.063Z,1.75
2019-02-10T01:07:10.788Z,1.63
2019-02-10T01:09:40.658Z,1.61
2019-02-10T01:12:10.489Z,1.70
2019-02-10T01:14:40.127Z,1.63
2019-02-10T01:17:09.847Z,1.61
2019-02-10T01:19:39.373Z,1.61
2019-02-10T01:22:09.970Z,1.49
2019-02-10T01:24:39.425Z,1.48
2019-02-10T01:27:09.001Z,1.55
2019-02-10T01:29:38.735Z,1.67
2019-02-10T01:32:08.417Z,1.71
2019-02-10T01:34:38.035Z,1.66
2019-02-10T01:37:07.637Z,1.67
2019-02-10T01:39:37.286Z,1.66
2019-02-10T01:42:07.113Z,1.74
2019-02-10T01:44:36.646Z,1.67
2019-02-10T01:47:06.265Z,1.47
2019-02-10T01:49:35.985Z,1.56
2019-02-10T01:52:05.819Z,1.69
2019-02-10T01:54:35.490Z,1.72
2019-02-10T01:57:05.236Z,1.67
2019-02-10T01:59:34.885Z,1.54
2019-02-10T02:02:04.528Z,1.56
2019-02-10T02:04:34.033Z,1.65
2019-02-10T02:07:03.629Z,1.66
2019-02-10T02:09:33.253Z,1.71
2019-02-10T02:12:03.255Z,1.72
2019-02-10T02:14:32.924Z,1.79
2019-02-10T02:17:02.629Z,1.77
2019-02-10T02:19:32.310Z,1.79
2019-02-10T02:22:01.981Z,1.80
2019-02-10T02:24:31.568Z,1.73
2019-02-10T02:27:01.488Z,1.62
2019-02-10T02:29:31.175Z,1.60
2019-02-10T02:32:00.931Z,1.58
2019-02-10T02:34:30.677Z,1.62
2019-02-10T02:37:08.054Z,1.64
2019-02-10T02:39:33.513Z,1.54
2019-02-10T02:42:03.179Z,1.45
2019-02-10T02:44:33.447Z,1.46
2019-02-10T02:47:03.200Z,1.48
2019-02-10T02:49:32.874Z,1.46
2019-02-10T02:52:02.522Z,1.53
2019-02-10T02:54:32.285Z,1.50
2019-02-10T02:57:01.924Z,1.51
2019-02-10T02:59:31.429Z,1.49
2019-02-10T03:02:01.054Z,1.51
2019-02-10T03:04:30.739Z,1.54
2019-02-10T03:07:00.534Z,1.50
2019-02-10T03:09:30.297Z,1.43
2019-02-10T03:11:59.901Z,1.45
2019-02-10T03:14:29.686Z,1.50
2019-02-10T03:16:59.160Z,1.50
2019-02-10T03:19:28.817Z,1.46
2019-02-10T03:21:58.451Z,1.37
2019-02-10T03:24:28.025Z,1.39
2019-02-10T03:26:57.711Z,1.46
2019-02-10T03:29:27.361Z,1.31
2019-02-10T03:31:57.112Z,1.30
2019-02-10T03:34:26.878Z,1.35
2019-02-10T03:36:56.461Z,1.18
2019-02-10T03:39:26.342Z,1.26
2019-02-10T03:41:55.903Z,1.28
2019-02-10T03:44:25.569Z,1.21
2019-02-10T03:46:55.282Z,1.25
2019-02-10T03:49:25.077Z,1.28
2019-02-10T03:51:54.820Z,1.33
2019-02-10T03:54:24.642Z,1.32
2019-02-10T03:56:54.284Z,1.36
2019-02-10T03:59:24.037Z,1.35
2019-02-10T04:01:53.753Z,1.38
2019-02-10T04:04:23.341Z,1.45
2019-02-10T04:06:53.014Z,1.42
2019-02-10T04:09:22.692Z,1.36
2019-02-10T04:11:52.376Z,1.36
2019-02-10T04:14:22.019Z,1.42
2019-02-10T04:16:51.631Z,1.27
2019-02-10T04:19:21.251Z,1.37
2019-02-10T04:21:50.961Z,1.42
2019-02-10T04:24:20.754Z,1.40
2019-02-10T04:26:50.431Z,1.46
2019-02-10T04:29:20.030Z,1.38
2019-02-10T04:31:49.781Z,1.38
2019-02-10T04:34:19.406Z,1.43
2019-02-10T04:36:48.934Z,1.43
2019-02-10T04:39:18.713Z,1.34
2019-02-10T04:41:48.398Z,1.32
2019-02-10T04:44:18.069Z,1.15
2019-02-10T04:46:47.725Z,1.02
2019-02-10T04:49:17.417Z,0.93
2019-02-10T04:51:47.190Z,0.99
2019-02-10T04:54:16.782Z,1.16
2019-02-10T04:56:46.401Z,1.34
2019-02-10T04:59:16.129Z,1.15
2019-02-10T05:01:45.848Z,1.36
2019-02-10T05:04:15.565Z,1.33
2019-02-10T05:06:45.202Z,1.38
2019-02-10T05:09:14.902Z,1.15
2019-02-10T05:11:44.849Z,1.30
2019-02-10T05:14:14.524Z,1.41
2019-02-10T05:16:45.014Z,1.07
2019-02-10T05:19:14.797Z,1.02
2019-02-10T05:21:44.458Z,0.99
2019-02-10T05:24:14.055Z,1.14
2019-02-10T05:26:43.681Z,1.23
2019-02-10T05:29:13.361Z,1.22
2019-02-10T05:31:43.018Z,1.29
2019-02-10T05:34:12.518Z,1.26
2019-02-10T05:36:42.228Z,1.36
2019-02-10T05:39:11.843Z,1.40
2019-02-10T05:41:41.492Z,1.52
2019-02-10T05:44:11.255Z,1.65
2019-02-10T05:46:40.874Z,1.74
2019-02-10T05:49:10.465Z,1.68
2019-02-10T05:51:40.127Z,1.68
2019-02-10T05:54:09.650Z,1.74
2019-02-10T05:56:39.179Z,1.86
2019-02-10T05:59:08.957Z,1.89
2019-02-10T06:01:59.128Z,1.72
2019-02-10T06:04:29.222Z,1.46
2019-02-10T06:07:01.056Z,1.37
2019-02-10T06:09:30.790Z,1.32
2019-02-10T06:12:00.294Z,1.45
2019-02-10T06:14:30.534Z,1.76
2019-02-10T06:17:00.391Z,1.95
2019-02-10T06:19:30.042Z,1.74
2019-02-10T06:21:59.786Z,1.60
2019-02-10T06:24:29.399Z,1.70
2019-02-10T06:26:59.059Z,1.72
2019-02-10T06:29:28.852Z,1.62
2019-02-10T06:31:58.440Z,1.73
2019-02-10T06:34:28.163Z,1.83
2019-02-10T06:36:57.781Z,1.87
2019-02-10T06:39:27.564Z,3.98
2019-02-10T06:41:57.134Z,5.94
2019-02-10T06:44:26.903Z,5.94
2019-02-10T06:46:56.659Z,8.03
2019-02-10T06:49:26.275Z,9.55
2019-02-10T06:51:55.797Z,11.24
2019-02-10T06:54:25.496Z,12.95
2019-02-10T06:56:55.214Z,13.58
2019-02-10T06:59:56.239Z,14.55
2019-02-10T07:02:35.432Z,15.50
2019-02-10T07:05:05.581Z,16.03
2019-02-10T07:07:35.351Z,16.21
2019-02-10T07:10:05.438Z,17.49
2019-02-10T07:12:50.945Z,17.90
2019-02-10T07:15:56.152Z,18.64
2019-02-10T07:19:01.403Z,19.26
2019-02-10T07:21:40.424Z,19.39
2019-02-10T07:24:38.944Z,21.28
2019-02-10T07:27:29.126Z,20.71
2019-02-10T07:30:40.842Z,22.11
2019-02-10T07:33:20.603Z,22.24
2019-02-10T07:36:06.640Z,22.89
2019-02-10T07:39:17.322Z,23.14
2019-02-10T07:42:22.371Z,23.76
2019-02-10T07:45:14.272Z,24.77
2019-02-10T07:48:10.039Z,24.77
2019-02-10T07:51:16.175Z,26.21
2019-02-10T07:54:13.559Z,25.85
2019-02-10T07:56:58.454Z,26.97
2019-02-10T08:00:27.105Z,27.33
2019-02-10T08:03:28.540Z,27.58
2019-02-10T08:06:21.225Z,27.77
2019-02-10T08:09:27.331Z,27.96
2019-02-10T08:12:49.830Z,28.42
2019-02-10T08:15:53.593Z,29.43
2019-02-10T08:19:19.324Z,28.93
2019-02-10T08:22:16.392Z,29.84
2019-02-10T08:25:38.908Z,30.67
2019-02-10T08:28:34.305Z,31.39
2019-02-10T08:31:40.337Z,31.67
2019-02-10T08:34:20.950Z,32.63
2019-02-10T08:37:30.412Z,32.82
2019-02-10T08:40:29.986Z,32.43
2019-02-10T08:43:32.695Z,30.83
2019-02-10T08:47:04.495Z,31.75
2019-02-10T08:50:09.710Z,31.25
2019-02-10T08:52:51.766Z,32.44
2019-02-10T08:55:17.326Z,33.63
2019-02-10T08:57:47.014Z,33.59
2019-02-10T09:00:16.646Z,34.14
2019-02-10T09:02:46.294Z,33.55
2019-02-10T09:05:15.902Z,33.69
2019-02-10T09:07:45.518Z,32.17
2019-02-10T09:10:15.250Z,32.13
2019-02-10T09:12:44.869Z,31.71
2019-02-10T09:15:14.649Z,31.75
2019-02-10T09:17:44.360Z,32.67
2019-02-10T09:20:14.119Z,32.81
2019-02-10T09:22:43.737Z,33.55
2019-02-10T09:25:13.453Z,33.06
2019-02-10T09:27:43.148Z,33.89
2019-02-10T09:30:14.100Z,33.96
2019-02-10T09:32:43.751Z,33.02
2019-02-10T09:35:13.791Z,32.76
2019-02-10T09:37:43.281Z,32.70
2019-02-10T09:40:13.248Z,32.94
2019-02-10T09:42:44.555Z,31.49
2019-02-10T09:45:16.116Z,32.04
2019-02-10T09:47:45.851Z,30.99
2019-02-10T09:50:17.806Z,31.72
2019-02-10T09:52:47.552Z,32.11
2019-02-10T09:55:17.246Z,31.66
2019-02-10T09:57:46.940Z,29.97
2019-02-10T10:00:16.720Z,27.65
2019-02-10T10:02:46.376Z,25.93
2019-02-10T10:05:15.990Z,24.66
2019-02-10T10:07:45.814Z,23.84
2019-02-10T10:10:15.660Z,23.87
2019-02-10T10:12:45.452Z,24.53
2019-02-10T10:15:17.134Z,25.60
2019-02-10T10:17:46.817Z,26.63
2019-02-10T10:20:17.317Z,27.51
2019-02-10T10:22:47.932Z,28.58
2019-02-10T10:25:17.629Z,28.86
2019-02-10T10:27:47.528Z,30.23
2019-02-10T10:30:17.592Z,31.14
2019-02-10T10:32:47.403Z,31.20
2019-02-10T10:35:17.283Z,31.79
2019-02-10T10:37:49.933Z,32.89
2019-02-10T10:40:19.754Z,32.24
2019-02-10T10:42:49.394Z,33.02
2019-02-10T10:45:18.880Z,33.69
2019-02-10T10:47:48.522Z,34.04
2019-02-10T10:50:18.122Z,33.68
2019-02-10T10:52:47.874Z,33.90
2019-02-10T10:55:17.543Z,33.33
2019-02-10T10:57:47.426Z,32.89
2019-02-10T11:00:17.071Z,34.27
2019-02-10T11:02:46.779Z,35.29
2019-02-10T11:05:16.473Z,36.17
2019-02-10T11:07:46.048Z,35.80
2019-02-10T11:10:15.883Z,35.13
2019-02-10T11:12:45.637Z,36.33
2019-02-10T11:15:15.442Z,34.66
2019-02-10T11:17:45.240Z,34.70
2019-02-10T11:20:14.936Z,35.30
2019-02-10T11:22:44.702Z,35.47
2019-02-10T11:25:14.402Z,34.53
2019-02-10T11:27:44.569Z,35.02
2019-02-10T11:30:14.493Z,35.53
2019-02-10T11:32:44.308Z,36.22
2019-02-10T11:35:13.864Z,36.79
2019-02-10T11:37:43.459Z,36.36
2019-02-10T11:40:13.344Z,37.25
2019-02-10T11:42:42.939Z,36.85
2019-02-10T11:45:12.568Z,35.98
2019-02-10T11:47:42.123Z,35.25
2019-02-10T11:50:11.987Z,35.37
2019-02-10T11:52:41.790Z,34.80
2019-02-10T11:55:12.225Z,32.63
2019-02-10T11:57:41.920Z,31.57
2019-02-10T12:00:12.281Z,30.96
2019-02-10T12:02:41.888Z,30.28
2019-02-10T12:05:11.962Z,28.05
2019-02-10T12:07:41.668Z,26.13
2019-02-10T12:10:11.672Z,25.04
2019-02-10T12:12:41.285Z,23.89
2019-02-10T12:15:11.279Z,22.99
2019-02-10T12:17:40.938Z,21.48
2019-02-10T12:20:11.238Z,20.56
2019-02-10T12:22:40.880Z,19.71
2019-02-10T12:25:11.250Z,19.29
2019-02-10T12:27:40.939Z,18.88
2019-02-10T12:30:12.611Z,18.68
2019-02-10T12:32:42.380Z,18.54
2019-02-10T12:35:12.121Z,18.33
2019-02-10T12:37:41.662Z,18.30
2019-02-10T12:40:11.837Z,17.96
2019-02-10T12:42:41.555Z,18.10
2019-02-10T12:45:11.469Z,18.12
2019-02-10T12:47:41.138Z,17.96
2019-02-10T12:50:11.541Z,17.93
2019-02-10T12:52:41.204Z,17.65
2019-02-10T12:55:11.111Z,17.63
2019-02-10T12:57:40.661Z,17.63
2019-02-10T13:00:13.195Z,17.28
2019-02-10T13:02:42.951Z,17.13
2019-02-10T13:05:12.578Z,16.97
2019-02-10T13:07:42.316Z,16.89
2019-02-10T13:10:13.020Z,16.85
2019-02-10T13:12:42.510Z,16.65
2019-02-10T13:15:12.235Z,16.72
2019-02-10T13:17:42.136Z,16.79
2019-02-10T13:20:11.865Z,16.96
2019-02-10T13:22:41.628Z,16.91
2019-02-10T13:25:11.426Z,16.98
2019-02-10T13:27:41.139Z,16.92
2019-02-10T13:30:12.449Z,16.81
2019-02-10T13:32:42.146Z,16.75
2019-02-10T13:35:12.092Z,16.78
2019-02-10T13:37:41.695Z,16.67
2019-02-10T13:40:16.711Z,16.71
2019-02-10T13:42:45.874Z,16.59
2019-02-10T13:45:15.554Z,16.62
2019-02-10T13:47:45.109Z,16.55
2019-02-10T13:50:15.836Z,16.40
2019-02-10T13:52:45.515Z,16.25
2019-02-10T13:55:15.340Z,16.18
2019-02-10T13:57:45.105Z,16.09
2019-02-10T14:00:16.790Z,15.96
2019-02-10T14:02:46.462Z,15.66
2019-02-10T14:05:16.210Z,15.76
2019-02-10T14:07:45.938Z,15.72
2019-02-10T14:10:16.107Z,15.69
2019-02-10T14:12:45.866Z,15.70
2019-02-10T14:15:15.880Z,15.51
2019-02-10T14:17:45.569Z,15.47
2019-02-10T14:20:16.413Z,15.32
2019-02-10T14:22:46.257Z,15.36
2019-02-10T14:25:16.015Z,15.33
2019-02-10T14:27:45.915Z,15.13
2019-02-10T14:30:17.090Z,14.94
2019-02-10T14:32:47.116Z,14.79
2019-02-10T14:35:17.142Z,14.70
2019-02-10T14:37:47.911Z,14.59
2019-02-10T14:40:18.088Z,14.63
2019-02-10T14:42:48.844Z,14.59
2019-02-10T14:45:19.641Z,14.64
2019-02-10T14:47:49.993Z,14.61
2019-02-10T14:50:21.801Z,14.41
2019-02-10T14:52:52.848Z,14.34
2019-02-10T14:55:23.674Z,14.30
2019-02-10T14:57:54.179Z,14.26
2019-02-10T15:00:25.109Z,14.26
2019-02-10T15:02:56.817Z,14.26
2019-02-10T15:05:27.094Z,14.15
2019-02-10T15:07:56.948Z,14.13
2019-02-10T15:10:26.952Z,14.09
2019-02-10T15:12:57.059Z,14.11
2019-02-10T15:15:27.133Z,13.97
2019-02-10T15:17:57.293Z,13.80
2019-02-10T15:20:27.354Z,13.66
2019-02-10T15:22:57.508Z,13.59
2019-02-10T15:25:28.171Z,13.47
2019-02-10T15:27:58.308Z,13.41
2019-02-10T15:30:28.566Z,13.33
2019-02-10T15:32:58.602Z,13.21
2019-02-10T15:35:28.388Z,13.18
2019-02-10T15:37:58.258Z,13.02
2019-02-10T15:40:28.686Z,12.86
2019-02-10T15:42:59.287Z,12.72
2019-02-10T15:45:30.066Z,12.62
2019-02-10T15:48:00.134Z,12.65
2019-02-10T15:50:30.426Z,12.60
2019-02-10T15:53:02.100Z,12.48
2019-02-10T15:55:32.155Z,12.40
2019-02-10T15:58:02.811Z,12.26
2019-02-10T16:00:33.476Z,12.14
2019-02-10T16:03:04.594Z,12.05
2019-02-10T16:05:35.622Z,11.99
2019-02-10T16:08:06.723Z,11.81
2019-02-10T16:10:37.304Z,11.77
2019-02-10T16:13:08.293Z,11.60
2019-02-10T16:15:38.952Z,11.30
2019-02-10T16:18:10.350Z,11.08
2019-02-10T16:20:40.929Z,10.81
2019-02-10T16:23:11.809Z,10.69
2019-02-10T16:25:42.865Z,10.62
2019-02-10T16:28:13.762Z,10.55
2019-02-10T16:30:44.781Z,10.43
2019-02-10T16:33:15.764Z,10.19
2019-02-10T16:35:47.184Z,10.18
2019-02-10T16:38:18.326Z,9.98
2019-02-10T16:40:49.677Z,9.95
2019-02-10T16:43:21.025Z,9.97
2019-02-10T16:45:52.021Z,9.83
2019-02-10T16:48:23.226Z,9.72
2019-02-10T16:50:54.834Z,9.51
2019-02-10T16:53:25.757Z,9.47
2019-02-10T16:55:56.812Z,9.47
2019-02-10T16:58:27.899Z,9.51
2019-02-10T17:00:58.590Z,9.48
2019-02-10T17:03:29.222Z,9.53
2019-02-10T17:06:00.067Z,9.45
2019-02-10T17:08:31.025Z,9.40
2019-02-10T17:11:01.789Z,9.30
2019-02-10T17:13:32.761Z,9.28
2019-02-10T17:16:05.350Z,9.35
2019-02-10T17:18:36.316Z,9.35
2019-02-10T17:21:07.481Z,9.33
2019-02-10T17:23:38.790Z,9.23
2019-02-10T17:26:09.798Z,9.19
2019-02-10T17:28:40.899Z,9.28
2019-02-10T17:31:11.992Z,9.18
2019-02-10T17:33:43.232Z,9.26
2019-02-10T17:36:14.236Z,9.25
2019-02-10T17:38:45.180Z,9.10
2019-02-10T17:41:23.133Z,9.08
2019-02-10T17:43:54.401Z,9.09
2019-02-10T17:46:25.565Z,9.12
2019-02-10T17:48:58.073Z,9.02
2019-02-10T17:51:29.370Z,9.00
2019-02-10T17:54:00.420Z,8.96
2019-02-10T17:56:31.611Z,8.96
2019-02-10T17:59:02.570Z,8.93
2019-02-10T18:01:33.851Z,8.89
2019-02-10T18:04:05.148Z,8.81
2019-02-10T18:06:37.272Z,8.82
2019-02-10T18:09:09.312Z,8.54
2019-02-10T18:11:41.924Z,8.54
2019-02-10T18:14:35.190Z,8.54
2019-02-10T18:17:31.880Z,8.50
2019-02-10T18:20:13.387Z,8.48
2019-02-10T18:23:13.007Z,8.47
2019-02-10T18:26:09.431Z,8.55
2019-02-10T18:28:58.187Z,8.67
2019-02-10T18:31:48.641Z,8.80
2019-02-10T18:34:29.970Z,8.81
2019-02-10T18:37:23.675Z,8.72
2019-02-10T18:40:18.799Z,8.89
2019-02-10T18:43:08.788Z,8.93
2019-02-10T18:46:07.672Z,8.90
2019-02-10T18:48:57.438Z,8.90
2019-02-10T18:51:40.262Z,8.92
2019-02-10T18:54:29.867Z,8.86
2019-02-10T18:57:19.824Z,8.78
2019-02-10T19:00:29.498Z,8.73
2019-02-10T19:03:06.518Z,8.51
2019-02-10T19:05:55.872Z,8.51
2019-02-10T19:08:48.604Z,8.45
2019-02-10T19:11:50.731Z,8.32
2019-02-10T19:14:46.843Z,8.32
2019-02-10T19:17:36.085Z,7.88
2019-02-10T19:20:27.903Z,8.06
2019-02-10T19:23:10.871Z,8.07
2019-02-10T19:26:15.869Z,7.77
2019-02-10T19:29:04.977Z,7.67
2019-02-10T19:31:58.210Z,7.67
2019-02-10T19:34:54.873Z,7.75
2019-02-10T19:37:52.821Z,7.64
2019-02-10T19:40:48.452Z,7.64
2019-02-10T19:43:36.907Z,7.73
2019-02-10T19:46:26.682Z,7.78
2019-02-10T19:49:22.026Z,7.77
2019-02-10T19:52:24.600Z,7.65
2019-02-10T19:55:15.182Z,7.63
2019-02-10T19:58:05.505Z,7.40
2019-02-10T20:00:47.065Z,7.39
2019-02-10T20:03:38.321Z,7.57
2019-02-10T20:06:17.053Z,7.65
2019-02-10T20:09:10.570Z,7.65
2019-02-10T20:12:04.364Z,7.60
2019-02-10T20:14:45.078Z,7.58
2019-02-10T20:17:42.110Z,7.65
2019-02-10T20:20:29.712Z,7.69
2019-02-10T20:23:25.697Z,7.62
2019-02-10T20:26:18.941Z,7.59
2019-02-10T20:29:07.198Z,7.60
2019-02-10T20:31:50.838Z,7.65
2019-02-10T20:34:42.396Z,7.75
2019-02-10T20:37:42.405Z,7.70
2019-02-10T20:40:30.247Z,7.36
2019-02-10T20:43:32.490Z,7.36
2019-02-10T20:46:36.288Z,7.51
2019-02-10T20:49:38.707Z,7.52
2019-02-10T20:52:27.467Z,7.47
2019-02-10T20:55:13.462Z,7.47
2019-02-10T20:58:01.302Z,7.40
2019-02-10T21:00:58.019Z,7.11
2019-02-10T21:03:50.472Z,7.16
2019-02-10T21:06:40.777Z,7.04
2019-02-10T21:09:20.331Z,7.03
2019-02-10T21:12:11.771Z,7.08
2019-02-10T21:15:02.154Z,6.89
2019-02-10T21:17:51.826Z,7.02
2019-02-10T21:20:42.463Z,7.01
2019-02-10T21:23:38.267Z,7.01
2019-02-10T21:26:33.868Z,6.97
2019-02-10T21:29:25.989Z,6.99
2019-02-10T21:32:13.466Z,7.00
2019-02-10T21:34:48.742Z,7.06
2019-02-10T21:37:23.227Z,7.06
2019-02-10T21:40:14.634Z,7.06
2019-02-10T21:43:01.556Z,6.98
2019-02-10T21:45:50.171Z,6.78
2019-02-10T21:48:26.176Z,6.74
2019-02-10T21:50:56.008Z,6.76
2019-02-10T21:53:25.699Z,6.48
2019-02-10T21:55:55.402Z,6.52
2019-02-10T21:58:25.061Z,6.60
2019-02-10T22:00:54.805Z,6.69
2019-02-10T22:03:24.520Z,6.74
2019-02-10T22:05:54.148Z,6.56
2019-02-10T22:08:23.821Z,6.45
2019-02-10T22:10:53.582Z,6.54
2019-02-10T22:13:23.305Z,6.59
2019-02-10T22:15:52.934Z,6.41
2019-02-10T22:18:22.590Z,6.25
2019-02-10T22:20:52.219Z,6.38
2019-02-10T22:23:21.935Z,6.33
2019-02-10T22:25:51.775Z,6.17
2019-02-10T22:28:21.569Z,6.27
2019-02-10T22:30:51.414Z,6.25
2019-02-10T22:33:21.172Z,6.17
2019-02-10T22:35:50.878Z,6.24
2019-02-10T22:38:20.408Z,6.26
2019-02-10T22:40:50.034Z,6.23
2019-02-10T22:43:19.761Z,6.29
2019-02-10T22:45:49.642Z,6.27
2019-02-10T22:48:19.312Z,6.16
2019-02-10T22:50:49.114Z,6.19
2019-02-10T22:53:18.861Z,6.19
2019-02-10T22:55:48.423Z,6.04
2019-02-10T22:58:18.180Z,6.04
2019-02-10T23:00:59.017Z,5.92
2019-02-10T23:03:28.885Z,5.90
2019-02-10T23:05:58.463Z,5.81
2019-02-10T23:08:28.501Z,5.63
2019-02-10T23:10:58.222Z,5.63
2019-02-10T23:13:28.002Z,5.65
2019-02-10T23:15:57.660Z,5.58
2019-02-10T23:18:27.381Z,5.58
2019-02-10T23:20:57.080Z,5.58
2019-02-10T23:23:26.706Z,5.52
2019-02-10T23:25:56.536Z,5.53
2019-02-10T23:28:26.405Z,5.53
2019-02-10T23:30:56.136Z,5.54
2019-02-10T23:33:25.967Z,5.42
2019-02-10T23:35:55.680Z,5.44
2019-02-10T23:38:25.522Z,5.32
2019-02-10T23:40:55.199Z,5.41
2019-02-10T23:43:24.775Z,5.46
2019-02-10T23:45:54.647Z,5.47
2019-02-10T23:48:24.332Z,5.34
2019-02-10T23:50:53.944Z,5.17
2019-02-10T23:53:23.639Z,5.28
2019-02-10T23:55:53.362Z,5.39
2019-02-10T23:58:23.130Z,5.35
